sensor_id;sensor_type;location;lat;lon;timestamp;P1;durP1;ratioP1;P2;durP2;ratioP2
30243;SDS011;64022;53.652;9.792;2022-11-20T00:01:08;71.97;;;43.45;;
30243;SDS011;64022;53.652;9.792;2022-11-20T00:03:35;73.70;;;46.13;;
30243;SDS011;64022;53.652;9.792;2022-11-20T00:06:01;78.53;;;45.63;;
30243;SDS011;64022;53.652;9.792;2022-11-20T00:08:35;74.97;;;45.85;;
30243;SDS011;64022;53.652;9.792;2022-11-20T00:11:11;74.78;;;46.15;;
30243;SDS011;64022;53.652;9.792;2022-11-20T00:13:45;77.22;;;46.58;;
30243;SDS011;64022;53.652;9.792;2022-11-20T00:16:13;74.80;;;46.42;;
30243;SDS011;64022;53.652;9.792;2022-11-20T00:18:41;75.88;;;47.30;;
30243;SDS011;64022;53.652;9.792;2022-11-20T00:21:10;72.70;;;45.78;;
30243;SDS011;64022;53.652;9.792;2022-11-20T00:23:41;74.05;;;45.05;;
30243;SDS011;64022;53.652;9.792;2022-11-20T00:26:08;70.60;;;44.60;;
30243;SDS011;64022;53.652;9.792;2022-11-20T00:28:35;73.93;;;45.50;;
30243;SDS011;64022;53.652;9.792;2022-11-20T00:31:34;75.17;;;45.50;;
30243;SDS011;64022;53.652;9.792;2022-11-20T00:33:54;72.05;;;44.38;;
30243;SDS011;64022;53.652;9.792;2022-11-20T00:36:20;67.53;;;43.73;;
30243;SDS011;64022;53.652;9.792;2022-11-20T00:38:50;69.82;;;43.42;;
30243;SDS011;64022;53.652;9.792;2022-11-20T00:41:17;67.50;;;43.63;;
30243;SDS011;64022;53.652;9.792;2022-11-20T00:43:42;72.47;;;45.03;;
30243;SDS011;64022;53.652;9.792;2022-11-20T00:46:15;72.50;;;45.30;;
30243;SDS011;64022;53.652;9.792;2022-11-20T00:48:43;67.53;;;43.42;;
30243;SDS011;64022;53.652;9.792;2022-11-20T00:51:09;68.15;;;43.45;;
30243;SDS011;64022;53.652;9.792;2022-11-20T00:53:37;68.00;;;42.88;;
30243;SDS011;64022;53.652;9.792;2022-11-20T00:56:03;68.37;;;42.47;;
30243;SDS011;64022;53.652;9.792;2022-11-20T00:58:32;69.70;;;43.38;;
30243;SDS011;64022;53.652;9.792;2022-11-20T01:01:06;69.70;;;43.55;;
30243;SDS011;64022;53.652;9.792;2022-11-20T01:03:38;64.03;;;39.90;;
30243;SDS011;64022;53.652;9.792;2022-11-20T01:06:06;66.68;;;41.95;;
30243;SDS011;64022;53.652;9.792;2022-11-20T01:08:35;66.68;;;41.17;;
30243;SDS011;64022;53.652;9.792;2022-11-20T01:11:05;61.22;;;39.33;;
30243;SDS011;64022;53.652;9.792;2022-11-20T01:13:32;65.72;;;40.30;;
30243;SDS011;64022;53.652;9.792;2022-11-20T01:16:08;63.75;;;40.42;;
30243;SDS011;64022;53.652;9.792;2022-11-20T01:18:39;61.72;;;38.40;;
30243;SDS011;64022;53.652;9.792;2022-11-20T01:21:08;64.78;;;41.00;;
30243;SDS011;64022;53.652;9.792;2022-11-20T01:23:36;62.80;;;40.28;;
30243;SDS011;64022;53.652;9.792;2022-11-20T01:26:04;65.38;;;40.53;;
30243;SDS011;64022;53.652;9.792;2022-11-20T01:28:31;62.25;;;39.38;;
30243;SDS011;64022;53.652;9.792;2022-11-20T01:30:57;62.00;;;39.33;;
30243;SDS011;64022;53.652;9.792;2022-11-20T01:33:23;61.72;;;39.38;;
30243;SDS011;64022;53.652;9.792;2022-11-20T01:35:49;61.50;;;39.13;;
30243;SDS011;64022;53.652;9.792;2022-11-20T01:38:15;62.27;;;37.90;;
30243;SDS011;64022;53.652;9.792;2022-11-20T01:40:41;61.22;;;39.25;;
30243;SDS011;64022;53.652;9.792;2022-11-20T01:43:14;60.83;;;38.17;;
30243;SDS011;64022;53.652;9.792;2022-11-20T01:48:19;62.55;;;36.65;;
30243;SDS011;64022;53.652;9.792;2022-11-20T01:50:47;59.13;;;38.08;;
30243;SDS011;64022;53.652;9.792;2022-11-20T01:53:14;61.75;;;38.58;;
30243;SDS011;64022;53.652;9.792;2022-11-20T01:55:45;57.38;;;35.40;;
30243;SDS011;64022;53.652;9.792;2022-11-20T01:58:13;57.97;;;36.47;;
30243;SDS011;64022;53.652;9.792;2022-11-20T02:00:39;56.63;;;35.23;;
30243;SDS011;64022;53.652;9.792;2022-11-20T02:03:07;52.95;;;33.78;;
30243;SDS011;64022;53.652;9.792;2022-11-20T02:05:38;55.00;;;35.17;;
30243;SDS011;64022;53.652;9.792;2022-11-20T02:08:20;52.92;;;32.95;;
30243;SDS011;64022;53.652;9.792;2022-11-20T02:10:47;56.13;;;34.65;;
30243;SDS011;64022;53.652;9.792;2022-11-20T02:13:13;53.63;;;34.23;;
30243;SDS011;64022;53.652;9.792;2022-11-20T02:15:57;52.35;;;31.98;;
30243;SDS011;64022;53.652;9.792;2022-11-20T02:18:23;49.97;;;32.03;;
30243;SDS011;64022;53.652;9.792;2022-11-20T02:20:50;49.63;;;31.97;;
30243;SDS011;64022;53.652;9.792;2022-11-20T02:26:03;51.50;;;31.42;;
30243;SDS011;64022;53.652;9.792;2022-11-20T02:28:33;50.20;;;31.45;;
30243;SDS011;64022;53.652;9.792;2022-11-20T02:30:58;52.10;;;32.43;;
30243;SDS011;64022;53.652;9.792;2022-11-20T02:33:25;51.55;;;31.65;;
30243;SDS011;64022;53.652;9.792;2022-11-20T02:35:50;47.40;;;30.80;;
30243;SDS011;64022;53.652;9.792;2022-11-20T02:38:16;51.47;;;31.83;;
30243;SDS011;64022;53.652;9.792;2022-11-20T02:40:42;49.55;;;29.88;;
30243;SDS011;64022;53.652;9.792;2022-11-20T02:43:08;44.40;;;27.70;;
30243;SDS011;64022;53.652;9.792;2022-11-20T02:45:34;47.77;;;29.27;;
30243;SDS011;64022;53.652;9.792;2022-11-20T02:47:59;45.20;;;28.77;;
30243;SDS011;64022;53.652;9.792;2022-11-20T02:50:25;45.13;;;29.30;;
30243;SDS011;64022;53.652;9.792;2022-11-20T02:52:51;45.00;;;28.43;;
30243;SDS011;64022;53.652;9.792;2022-11-20T02:55:16;44.70;;;28.00;;
30243;SDS011;64022;53.652;9.792;2022-11-20T02:57:42;42.93;;;27.37;;
30243;SDS011;64022;53.652;9.792;2022-11-20T03:00:07;44.57;;;28.70;;
30243;SDS011;64022;53.652;9.792;2022-11-20T03:02:34;42.20;;;27.58;;
30243;SDS011;64022;53.652;9.792;2022-11-20T03:04:59;41.53;;;26.70;;
30243;SDS011;64022;53.652;9.792;2022-11-20T03:07:25;42.40;;;27.50;;
30243;SDS011;64022;53.652;9.792;2022-11-20T03:09:50;40.03;;;25.93;;
30243;SDS011;64022;53.652;9.792;2022-11-20T03:12:16;39.97;;;25.03;;
30243;SDS011;64022;53.652;9.792;2022-11-20T03:14:41;43.27;;;26.27;;
30243;SDS011;64022;53.652;9.792;2022-11-20T03:17:07;42.87;;;27.20;;
30243;SDS011;64022;53.652;9.792;2022-11-20T03:19:32;43.47;;;26.40;;
30243;SDS011;64022;53.652;9.792;2022-11-20T03:21:59;41.78;;;26.20;;
30243;SDS011;64022;53.652;9.792;2022-11-20T03:24:25;39.23;;;24.70;;
30243;SDS011;64022;53.652;9.792;2022-11-20T03:26:51;40.53;;;26.00;;
30243;SDS011;64022;53.652;9.792;2022-11-20T03:29:16;41.60;;;25.70;;
30243;SDS011;64022;53.652;9.792;2022-11-20T03:31:42;39.93;;;24.93;;
30243;SDS011;64022;53.652;9.792;2022-11-20T03:34:08;36.23;;;23.00;;
30243;SDS011;64022;53.652;9.792;2022-11-20T03:36:37;41.60;;;25.27;;
30243;SDS011;64022;53.652;9.792;2022-11-20T03:39:06;40.55;;;25.25;;
30243;SDS011;64022;53.652;9.792;2022-11-20T03:41:35;37.30;;;23.23;;
30243;SDS011;64022;53.652;9.792;2022-11-20T03:44:03;36.50;;;22.33;;
30243;SDS011;64022;53.652;9.792;2022-11-20T03:46:30;35.38;;;23.80;;
30243;SDS011;64022;53.652;9.792;2022-11-20T03:48:56;39.20;;;23.20;;
30243;SDS011;64022;53.652;9.792;2022-11-20T03:51:26;36.77;;;23.60;;
30243;SDS011;64022;53.652;9.792;2022-11-20T03:54:00;35.05;;;22.40;;
30243;SDS011;64022;53.652;9.792;2022-11-20T03:56:28;32.92;;;21.95;;
30243;SDS011;64022;53.652;9.792;2022-11-20T03:58:56;35.70;;;22.08;;
30243;SDS011;64022;53.652;9.792;2022-11-20T04:01:24;34.45;;;22.27;;
30243;SDS011;64022;53.652;9.792;2022-11-20T04:03:52;34.47;;;22.23;;
30243;SDS011;64022;53.652;9.792;2022-11-20T04:06:20;35.63;;;21.83;;
30243;SDS011;64022;53.652;9.792;2022-11-20T04:08:47;36.72;;;23.85;;
30243;SDS011;64022;53.652;9.792;2022-11-20T04:11:14;34.92;;;22.13;;
30243;SDS011;64022;53.652;9.792;2022-11-20T04:13:42;35.40;;;22.45;;
30243;SDS011;64022;53.652;9.792;2022-11-20T04:16:11;32.50;;;21.10;;
30243;SDS011;64022;53.652;9.792;2022-11-20T04:18:37;32.93;;;20.40;;
30243;SDS011;64022;53.652;9.792;2022-11-20T04:21:03;32.50;;;21.13;;
30243;SDS011;64022;53.652;9.792;2022-11-20T04:23:29;33.85;;;21.23;;
30243;SDS011;64022;53.652;9.792;2022-11-20T04:26:00;32.40;;;20.60;;
30243;SDS011;64022;53.652;9.792;2022-11-20T04:28:33;29.17;;;19.40;;
30243;SDS011;64022;53.652;9.792;2022-11-20T04:31:18;31.73;;;21.10;;
30243;SDS011;64022;53.652;9.792;2022-11-20T04:33:45;34.63;;;20.83;;
30243;SDS011;64022;53.652;9.792;2022-11-20T04:36:12;29.90;;;19.60;;
30243;SDS011;64022;53.652;9.792;2022-11-20T04:38:39;32.10;;;19.45;;
30243;SDS011;64022;53.652;9.792;2022-11-20T04:41:05;32.40;;;19.97;;
30243;SDS011;64022;53.652;9.792;2022-11-20T04:43:32;30.67;;;20.10;;
30243;SDS011;64022;53.652;9.792;2022-11-20T04:45:58;28.02;;;18.52;;
30243;SDS011;64022;53.652;9.792;2022-11-20T04:50:51;28.85;;;18.30;;
30243;SDS011;64022;53.652;9.792;2022-11-20T04:53:17;28.35;;;18.92;;
30243;SDS011;64022;53.652;9.792;2022-11-20T04:55:44;29.10;;;19.33;;
30243;SDS011;64022;53.652;9.792;2022-11-20T04:58:09;30.13;;;18.77;;
30243;SDS011;64022;53.652;9.792;2022-11-20T05:00:35;29.97;;;18.63;;
30243;SDS011;64022;53.652;9.792;2022-11-20T05:03:01;32.03;;;19.37;;
30243;SDS011;64022;53.652;9.792;2022-11-20T05:05:27;28.03;;;18.23;;
30243;SDS011;64022;53.652;9.792;2022-11-20T05:07:52;27.40;;;18.03;;
30243;SDS011;64022;53.652;9.792;2022-11-20T05:10:23;28.23;;;17.70;;
30243;SDS011;64022;53.652;9.792;2022-11-20T05:12:49;26.83;;;17.77;;
30243;SDS011;64022;53.652;9.792;2022-11-20T05:15:15;27.17;;;17.63;;
30243;SDS011;64022;53.652;9.792;2022-11-20T05:17:40;25.50;;;16.77;;
30243;SDS011;64022;53.652;9.792;2022-11-20T05:20:06;27.83;;;17.17;;
30243;SDS011;64022;53.652;9.792;2022-11-20T05:22:32;26.98;;;17.20;;
30243;SDS011;64022;53.652;9.792;2022-11-20T05:24:58;26.30;;;16.87;;
30243;SDS011;64022;53.652;9.792;2022-11-20T05:27:23;28.00;;;17.93;;
30243;SDS011;64022;53.652;9.792;2022-11-20T05:29:49;26.90;;;16.90;;
30243;SDS011;64022;53.652;9.792;2022-11-20T05:32:14;24.93;;;15.60;;
30243;SDS011;64022;53.652;9.792;2022-11-20T05:34:40;25.73;;;16.70;;
30243;SDS011;64022;53.652;9.792;2022-11-20T05:37:05;24.83;;;16.13;;
30243;SDS011;64022;53.652;9.792;2022-11-20T05:39:31;24.30;;;16.13;;
30243;SDS011;64022;53.652;9.792;2022-11-20T05:41:56;24.13;;;15.57;;
30243;SDS011;64022;53.652;9.792;2022-11-20T05:44:40;23.27;;;15.50;;
30243;SDS011;64022;53.652;9.792;2022-11-20T05:47:06;25.23;;;15.80;;
30243;SDS011;64022;53.652;9.792;2022-11-20T05:49:31;24.20;;;15.80;;
30243;SDS011;64022;53.652;9.792;2022-11-20T05:51:57;23.03;;;14.77;;
30243;SDS011;64022;53.652;9.792;2022-11-20T05:54:22;22.20;;;14.50;;
30243;SDS011;64022;53.652;9.792;2022-11-20T05:56:48;24.77;;;15.40;;
30243;SDS011;64022;53.652;9.792;2022-11-20T05:59:14;24.03;;;14.93;;
30243;SDS011;64022;53.652;9.792;2022-11-20T06:01:39;21.97;;;15.13;;
30243;SDS011;64022;53.652;9.792;2022-11-20T06:04:04;25.73;;;15.10;;
30243;SDS011;64022;53.652;9.792;2022-11-20T06:06:30;22.03;;;13.87;;
30243;SDS011;64022;53.652;9.792;2022-11-20T06:08:55;23.00;;;14.63;;
30243;SDS011;64022;53.652;9.792;2022-11-20T06:11:23;20.98;;;13.40;;
30243;SDS011;64022;53.652;9.792;2022-11-20T06:13:49;20.90;;;14.40;;
30243;SDS011;64022;53.652;9.792;2022-11-20T06:16:16;22.60;;;14.17;;
30243;SDS011;64022;53.652;9.792;2022-11-20T06:18:44;21.67;;;13.68;;
30243;SDS011;64022;53.652;9.792;2022-11-20T06:21:20;23.88;;;13.90;;
30243;SDS011;64022;53.652;9.792;2022-11-20T06:23:47;20.93;;;13.70;;
30243;SDS011;64022;53.652;9.792;2022-11-20T06:26:14;20.52;;;13.65;;
30243;SDS011;64022;53.652;9.792;2022-11-20T06:28:41;19.63;;;13.73;;
30243;SDS011;64022;53.652;9.792;2022-11-20T06:31:07;19.27;;;13.10;;
30243;SDS011;64022;53.652;9.792;2022-11-20T06:33:35;19.92;;;13.07;;
30243;SDS011;64022;53.652;9.792;2022-11-20T06:36:02;21.17;;;13.68;;
30243;SDS011;64022;53.652;9.792;2022-11-20T06:38:28;21.85;;;13.63;;
30243;SDS011;64022;53.652;9.792;2022-11-20T06:40:53;21.10;;;12.80;;
30243;SDS011;64022;53.652;9.792;2022-11-20T06:43:19;19.20;;;13.37;;
30243;SDS011;64022;53.652;9.792;2022-11-20T06:45:45;22.33;;;13.97;;
30243;SDS011;64022;53.652;9.792;2022-11-20T06:48:11;20.80;;;12.90;;
30243;SDS011;64022;53.652;9.792;2022-11-20T06:50:37;19.30;;;11.77;;
30243;SDS011;64022;53.652;9.792;2022-11-20T06:53:03;20.00;;;12.50;;
30243;SDS011;64022;53.652;9.792;2022-11-20T06:55:29;17.98;;;12.43;;
30243;SDS011;64022;53.652;9.792;2022-11-20T06:57:56;17.58;;;12.10;;
30243;SDS011;64022;53.652;9.792;2022-11-20T07:00:21;17.73;;;11.53;;
30243;SDS011;64022;53.652;9.792;2022-11-20T07:02:47;18.80;;;11.87;;
30243;SDS011;64022;53.652;9.792;2022-11-20T07:05:12;16.43;;;11.40;;
30243;SDS011;64022;53.652;9.792;2022-11-20T07:07:38;16.90;;;11.43;;
30243;SDS011;64022;53.652;9.792;2022-11-20T07:10:04;17.33;;;11.60;;
30243;SDS011;64022;53.652;9.792;2022-11-20T07:12:30;17.52;;;11.13;;
30243;SDS011;64022;53.652;9.792;2022-11-20T07:14:55;16.83;;;11.33;;
30243;SDS011;64022;53.652;9.792;2022-11-20T07:17:21;15.43;;;10.63;;
30243;SDS011;64022;53.652;9.792;2022-11-20T07:19:46;16.27;;;11.33;;
30243;SDS011;64022;53.652;9.792;2022-11-20T07:22:12;17.87;;;10.97;;
30243;SDS011;64022;53.652;9.792;2022-11-20T07:24:38;15.70;;;10.60;;
30243;SDS011;64022;53.652;9.792;2022-11-20T07:27:04;17.73;;;11.17;;
30243;SDS011;64022;53.652;9.792;2022-11-20T07:29:30;15.07;;;9.70;;
30243;SDS011;64022;53.652;9.792;2022-11-20T07:31:55;14.93;;;10.00;;
30243;SDS011;64022;53.652;9.792;2022-11-20T07:34:21;15.73;;;10.63;;
30243;SDS011;64022;53.652;9.792;2022-11-20T07:36:47;17.97;;;10.87;;
30243;SDS011;64022;53.652;9.792;2022-11-20T07:39:12;16.53;;;10.40;;
30243;SDS011;64022;53.652;9.792;2022-11-20T07:41:38;13.87;;;9.77;;
30243;SDS011;64022;53.652;9.792;2022-11-20T07:44:04;15.70;;;10.13;;
30243;SDS011;64022;53.652;9.792;2022-11-20T07:46:29;14.17;;;9.60;;
30243;SDS011;64022;53.652;9.792;2022-11-20T07:48:55;15.30;;;9.67;;
30243;SDS011;64022;53.652;9.792;2022-11-20T07:51:20;15.70;;;10.10;;
30243;SDS011;64022;53.652;9.792;2022-11-20T07:53:46;14.10;;;9.93;;
30243;SDS011;64022;53.652;9.792;2022-11-20T07:56:11;16.23;;;10.10;;
30243;SDS011;64022;53.652;9.792;2022-11-20T07:58:39;15.45;;;9.52;;
30243;SDS011;64022;53.652;9.792;2022-11-20T08:01:05;13.77;;;9.37;;
30243;SDS011;64022;53.652;9.792;2022-11-20T08:03:31;13.85;;;9.40;;
30243;SDS011;64022;53.652;9.792;2022-11-20T08:06:00;15.60;;;9.80;;
30243;SDS011;64022;53.652;9.792;2022-11-20T08:08:27;17.48;;;9.95;;
30243;SDS011;64022;53.652;9.792;2022-11-20T08:10:53;11.82;;;8.13;;
30243;SDS011;64022;53.652;9.792;2022-11-20T08:13:38;12.38;;;8.63;;
30243;SDS011;64022;53.652;9.792;2022-11-20T08:16:22;12.25;;;8.50;;
30243;SDS011;64022;53.652;9.792;2022-11-20T08:18:47;12.23;;;8.13;;
30243;SDS011;64022;53.652;9.792;2022-11-20T08:50:43;8.23;;;4.70;;
30243;SDS011;64022;53.652;9.792;2022-11-20T08:53:09;6.63;;;4.30;;
30243;SDS011;64022;53.652;9.792;2022-11-20T08:55:34;6.53;;;4.20;;
30243;SDS011;64022;53.652;9.792;2022-11-20T09:00:30;6.60;;;4.15;;
30243;SDS011;64022;53.652;9.792;2022-11-20T09:02:55;7.00;;;4.40;;
30243;SDS011;64022;53.652;9.792;2022-11-20T09:05:21;6.17;;;4.03;;
30243;SDS011;64022;53.652;9.792;2022-11-20T09:07:46;5.90;;;4.23;;
30243;SDS011;64022;53.652;9.792;2022-11-20T09:10:12;7.20;;;4.43;;
30243;SDS011;64022;53.652;9.792;2022-11-20T09:12:37;23.63;;;5.03;;
30243;SDS011;64022;53.652;9.792;2022-11-20T09:15:03;45.20;;;6.83;;
30243;SDS011;64022;53.652;9.792;2022-11-20T09:17:29;33.77;;;5.37;;
30243;SDS011;64022;53.652;9.792;2022-11-20T09:19:54;29.40;;;5.13;;
30243;SDS011;64022;53.652;9.792;2022-11-20T09:22:20;29.60;;;5.40;;
30243;SDS011;64022;53.652;9.792;2022-11-20T09:24:45;31.53;;;5.37;;
30243;SDS011;64022;53.652;9.792;2022-11-20T09:27:11;38.47;;;4.80;;
30243;SDS011;64022;53.652;9.792;2022-11-20T09:29:36;33.13;;;5.40;;
30243;SDS011;64022;53.652;9.792;2022-11-20T09:32:02;22.67;;;4.83;;
30243;SDS011;64022;53.652;9.792;2022-11-20T09:34:27;25.40;;;4.87;;
30243;SDS011;64022;53.652;9.792;2022-11-20T09:36:53;21.87;;;4.40;;
30243;SDS011;64022;53.652;9.792;2022-11-20T09:39:18;33.13;;;5.53;;
30243;SDS011;64022;53.652;9.792;2022-11-20T09:47:02;17.27;;;4.47;;
30243;SDS011;64022;53.652;9.792;2022-11-20T09:52:47;21.63;;;4.25;;
30243;SDS011;64022;53.652;9.792;2022-11-20T09:55:34;14.43;;;4.07;;
30243;SDS011;64022;53.652;9.792;2022-11-20T09:58:02;15.43;;;4.05;;
30243;SDS011;64022;53.652;9.792;2022-11-20T10:00:31;17.27;;;4.07;;
30243;SDS011;64022;53.652;9.792;2022-11-20T10:03:16;30.90;;;5.50;;
30243;SDS011;64022;53.652;9.792;2022-11-20T10:05:47;18.80;;;4.40;;
30243;SDS011;64022;53.652;9.792;2022-11-20T10:08:19;16.30;;;4.03;;
30243;SDS011;64022;53.652;9.792;2022-11-20T10:11:06;13.00;;;3.63;;
30243;SDS011;64022;53.652;9.792;2022-11-20T10:19:42;13.90;;;3.58;;
30243;SDS011;64022;53.652;9.792;2022-11-20T10:25:15;9.35;;;3.85;;
30243;SDS011;64022;53.652;9.792;2022-11-20T10:30:29;11.98;;;3.90;;
30243;SDS011;64022;53.652;9.792;2022-11-20T10:33:00;18.95;;;4.75;;
30243;SDS011;64022;53.652;9.792;2022-11-20T10:35:33;16.83;;;4.03;;
30243;SDS011;64022;53.652;9.792;2022-11-20T10:38:12;9.40;;;4.15;;
30243;SDS011;64022;53.652;9.792;2022-11-20T10:40:49;8.60;;;3.75;;
30243;SDS011;64022;53.652;9.792;2022-11-20T10:43:28;13.82;;;3.90;;
30243;SDS011;64022;53.652;9.792;2022-11-20T10:45:58;12.07;;;4.57;;
30243;SDS011;64022;53.652;9.792;2022-11-20T10:48:28;12.23;;;4.07;;
30243;SDS011;64022;53.652;9.792;2022-11-20T10:51:05;12.15;;;4.70;;
30243;SDS011;64022;53.652;9.792;2022-11-20T11:01:30;11.73;;;4.25;;
30243;SDS011;64022;53.652;9.792;2022-11-20T11:03:56;17.70;;;4.87;;
30243;SDS011;64022;53.652;9.792;2022-11-20T11:06:40;8.45;;;4.53;;
30243;SDS011;64022;53.652;9.792;2022-11-20T11:09:12;16.73;;;4.72;;
30243;SDS011;64022;53.652;9.792;2022-11-20T11:11:46;13.15;;;5.22;;
30243;SDS011;64022;53.652;9.792;2022-11-20T11:14:15;13.80;;;5.57;;
30243;SDS011;64022;53.652;9.792;2022-11-20T11:16:50;10.15;;;5.35;;
30243;SDS011;64022;53.652;9.792;2022-11-20T11:19:20;11.50;;;5.43;;
30243;SDS011;64022;53.652;9.792;2022-11-20T11:21:49;11.40;;;5.80;;
30243;SDS011;64022;53.652;9.792;2022-11-20T11:26:50;10.47;;;5.53;;
30243;SDS011;64022;53.652;9.792;2022-11-20T11:29:22;9.35;;;5.72;;
30243;SDS011;64022;53.652;9.792;2022-11-20T11:31:48;10.60;;;5.63;;
30243;SDS011;64022;53.652;9.792;2022-11-20T11:34:15;15.20;;;5.70;;
30243;SDS011;64022;53.652;9.792;2022-11-20T11:36:42;16.15;;;6.22;;
30243;SDS011;64022;53.652;9.792;2022-11-20T11:39:20;10.52;;;5.75;;
30243;SDS011;64022;53.652;9.792;2022-11-20T11:41:46;12.05;;;6.18;;
30243;SDS011;64022;53.652;9.792;2022-11-20T11:44:15;9.38;;;6.20;;
30243;SDS011;64022;53.652;9.792;2022-11-20T11:50:00;13.13;;;6.65;;
30243;SDS011;64022;53.652;9.792;2022-11-20T11:52:50;11.85;;;6.20;;
30243;SDS011;64022;53.652;9.792;2022-11-20T11:58:17;12.68;;;7.10;;
30243;SDS011;64022;53.652;9.792;2022-11-20T12:00:50;12.98;;;7.63;;
30243;SDS011;64022;53.652;9.792;2022-11-20T12:03:27;12.40;;;7.53;;
30243;SDS011;64022;53.652;9.792;2022-11-20T12:06:02;15.70;;;7.75;;
30243;SDS011;64022;53.652;9.792;2022-11-20T12:08:42;14.50;;;7.70;;
30243;SDS011;64022;53.652;9.792;2022-11-20T12:11:16;14.02;;;7.63;;
30243;SDS011;64022;53.652;9.792;2022-11-20T12:14:16;13.07;;;8.00;;
30243;SDS011;64022;53.652;9.792;2022-11-20T12:16:51;14.55;;;8.43;;
30243;SDS011;64022;53.652;9.792;2022-11-20T12:19:18;13.30;;;8.55;;
30243;SDS011;64022;53.652;9.792;2022-11-20T12:24:34;14.25;;;9.30;;
30243;SDS011;64022;53.652;9.792;2022-11-20T12:27:27;14.52;;;8.93;;
30243;SDS011;64022;53.652;9.792;2022-11-20T12:30:16;15.23;;;9.65;;
30243;SDS011;64022;53.652;9.792;2022-11-20T12:32:49;17.70;;;10.13;;
30243;SDS011;64022;53.652;9.792;2022-11-20T12:41:02;16.92;;;10.15;;
30243;SDS011;64022;53.652;9.792;2022-11-20T12:49:54;15.63;;;10.43;;
30243;SDS011;64022;53.652;9.792;2022-11-20T12:52:33;18.35;;;11.52;;
30243;SDS011;64022;53.652;9.792;2022-11-20T12:55:36;22.05;;;11.88;;
30243;SDS011;64022;53.652;9.792;2022-11-20T12:58:12;20.02;;;11.98;;
30243;SDS011;64022;53.652;9.792;2022-11-20T13:01:00;22.23;;;12.88;;
30243;SDS011;64022;53.652;9.792;2022-11-20T13:07:01;23.70;;;13.70;;
30243;SDS011;64022;53.652;9.792;2022-11-20T13:09:29;22.33;;;13.60;;
30243;SDS011;64022;53.652;9.792;2022-11-20T13:14:58;22.48;;;13.75;;
30243;SDS011;64022;53.652;9.792;2022-11-20T13:20:14;4.40;;;3.25;;
30243;SDS011;64022;53.652;9.792;2022-11-20T13:22:42;3.58;;;2.45;;
30243;SDS011;64022;53.652;9.792;2022-11-20T13:25:21;3.45;;;2.50;;
30243;SDS011;64022;53.652;9.792;2022-11-20T13:27:48;3.25;;;2.70;;
30243;SDS011;64022;53.652;9.792;2022-11-20T13:30:15;4.60;;;2.23;;
30243;SDS011;64022;53.652;9.792;2022-11-20T13:35:35;5.82;;;3.70;;
30243;SDS011;64022;53.652;9.792;2022-11-20T13:38:16;4.35;;;3.28;;
30243;SDS011;64022;53.652;9.792;2022-11-20T13:40:53;5.82;;;3.20;;
30243;SDS011;64022;53.652;9.792;2022-11-20T13:43:27;5.50;;;3.40;;
30243;SDS011;64022;53.652;9.792;2022-11-20T13:46:01;5.53;;;3.53;;
30243;SDS011;64022;53.652;9.792;2022-11-20T13:48:31;7.15;;;4.35;;
30243;SDS011;64022;53.652;9.792;2022-11-20T13:51:02;6.60;;;3.85;;
30243;SDS011;64022;53.652;9.792;2022-11-20T13:59:35;7.15;;;4.55;;
30243;SDS011;64022;53.652;9.792;2022-11-20T14:02:26;8.95;;;5.15;;
30243;SDS011;64022;53.652;9.792;2022-11-20T14:04:56;8.77;;;5.47;;
30243;SDS011;64022;53.652;9.792;2022-11-20T14:07:24;10.02;;;5.10;;
30243;SDS011;64022;53.652;9.792;2022-11-20T14:09:56;9.30;;;5.70;;
30243;SDS011;64022;53.652;9.792;2022-11-20T14:12:27;8.20;;;5.57;;
30243;SDS011;64022;53.652;9.792;2022-11-20T14:14:54;9.80;;;5.97;;
30243;SDS011;64022;53.652;9.792;2022-11-20T14:19:50;11.43;;;6.57;;
30243;SDS011;64022;53.652;9.792;2022-11-20T14:22:18;8.25;;;5.40;;
30243;SDS011;64022;53.652;9.792;2022-11-20T14:24:48;11.07;;;6.65;;
30243;SDS011;64022;53.652;9.792;2022-11-20T14:27:25;12.13;;;6.88;;
30243;SDS011;64022;53.652;9.792;2022-11-20T14:29:50;12.60;;;7.13;;
30243;SDS011;64022;53.652;9.792;2022-11-20T14:32:17;14.00;;;6.37;;
30243;SDS011;64022;53.652;9.792;2022-11-20T14:34:44;11.52;;;7.10;;
30243;SDS011;64022;53.652;9.792;2022-11-20T14:37:13;13.50;;;7.72;;
30243;SDS011;64022;53.652;9.792;2022-11-20T14:39:48;12.90;;;7.35;;
30243;SDS011;64022;53.652;9.792;2022-11-20T14:42:24;11.57;;;7.63;;
30243;SDS011;64022;53.652;9.792;2022-11-20T14:44:51;16.30;;;8.00;;
30243;SDS011;64022;53.652;9.792;2022-11-20T14:47:21;17.80;;;8.48;;
30243;SDS011;64022;53.652;9.792;2022-11-20T14:49:48;13.68;;;7.93;;
30243;SDS011;64022;53.652;9.792;2022-11-20T14:52:19;16.23;;;8.80;;
30243;SDS011;64022;53.652;9.792;2022-11-20T14:54:56;12.32;;;7.88;;
30243;SDS011;64022;53.652;9.792;2022-11-20T14:57:29;14.65;;;8.52;;
30243;SDS011;64022;53.652;9.792;2022-11-20T15:00:07;14.43;;;8.75;;
30243;SDS011;64022;53.652;9.792;2022-11-20T15:02:41;15.85;;;9.07;;
30243;SDS011;64022;53.652;9.792;2022-11-20T15:05:08;13.85;;;9.38;;
30243;SDS011;64022;53.652;9.792;2022-11-20T15:07:35;13.63;;;9.43;;
30243;SDS011;64022;53.652;9.792;2022-11-20T15:10:12;14.90;;;9.27;;
30243;SDS011;64022;53.652;9.792;2022-11-20T15:12:46;14.80;;;8.82;;
30243;SDS011;64022;53.652;9.792;2022-11-20T15:15:15;16.00;;;9.32;;
30243;SDS011;64022;53.652;9.792;2022-11-20T15:17:45;15.40;;;9.18;;
30243;SDS011;64022;53.652;9.792;2022-11-20T15:20:13;17.07;;;10.80;;
30243;SDS011;64022;53.652;9.792;2022-11-20T15:22:40;18.67;;;10.50;;
30243;SDS011;64022;53.652;9.792;2022-11-20T15:25:13;17.90;;;10.40;;
30243;SDS011;64022;53.652;9.792;2022-11-20T15:27:40;16.77;;;10.13;;
30243;SDS011;64022;53.652;9.792;2022-11-20T15:30:13;15.63;;;10.63;;
30243;SDS011;64022;53.652;9.792;2022-11-20T15:32:40;15.45;;;10.57;;
30243;SDS011;64022;53.652;9.792;2022-11-20T15:37:32;15.70;;;10.32;;
30243;SDS011;64022;53.652;9.792;2022-11-20T15:39:58;16.33;;;10.83;;
30243;SDS011;64022;53.652;9.792;2022-11-20T15:42:23;6.77;;;4.93;;
30243;SDS011;64022;53.652;9.792;2022-11-20T15:44:49;6.70;;;3.77;;
30243;SDS011;64022;53.652;9.792;2022-11-20T15:47:14;4.77;;;3.47;;
30243;SDS011;64022;53.652;9.792;2022-11-20T15:49:43;5.63;;;3.15;;
30243;SDS011;64022;53.652;9.792;2022-11-20T15:52:09;3.90;;;2.97;;
30243;SDS011;64022;53.652;9.792;2022-11-20T15:54:35;4.90;;;3.08;;
30243;SDS011;64022;53.652;9.792;2022-11-20T15:57:00;4.47;;;3.20;;
30243;SDS011;64022;53.652;9.792;2022-11-20T15:59:27;4.90;;;3.78;;
30243;SDS011;64022;53.652;9.792;2022-11-20T16:01:53;4.72;;;3.30;;
30243;SDS011;64022;53.652;9.792;2022-11-20T16:04:18;6.70;;;4.00;;
30243;SDS011;64022;53.652;9.792;2022-11-20T16:06:44;5.03;;;3.65;;
30243;SDS011;64022;53.652;9.792;2022-11-20T16:09:10;5.60;;;4.00;;
30243;SDS011;64022;53.652;9.792;2022-11-20T16:11:35;6.05;;;3.80;;
30243;SDS011;64022;53.652;9.792;2022-11-20T16:14:01;6.90;;;4.53;;
30243;SDS011;64022;53.652;9.792;2022-11-20T16:16:46;6.85;;;4.72;;
30243;SDS011;64022;53.652;9.792;2022-11-20T16:19:12;6.80;;;4.87;;
30243;SDS011;64022;53.652;9.792;2022-11-20T16:21:38;9.20;;;5.07;;
30243;SDS011;64022;53.652;9.792;2022-11-20T16:24:07;10.27;;;5.63;;
30243;SDS011;64022;53.652;9.792;2022-11-20T16:26:34;11.02;;;5.63;;
30243;SDS011;64022;53.652;9.792;2022-11-20T16:29:00;12.40;;;5.87;;
30243;SDS011;64022;53.652;9.792;2022-11-20T16:31:27;10.85;;;5.90;;
30243;SDS011;64022;53.652;9.792;2022-11-20T16:33:58;9.30;;;5.80;;